Mcbride, Canada
Current Conditions -  °F | °C
As of 4:12 AM on Tuesday 27 Jan 2015 (Local Time) from CYQZ Reporting Station
Moderate Fog Moderate Fog  
Wind Chill: 32°   Ceiling: 200
Heat Index: 32°   Visibility: 0.12mi
Dew Point: 32°   Wind: 0mph
Humidity: 100%   Direction: NA
Pressure: 29.76"   Gusts: NA
Location:  53.3°N, 120.17°W
Report Text: CYQZ 271212Z AUTO 00000KT 1/8SM FZFG VV002 M00/M00 A2976 RMK SLP105
Loading
Personal Weather Stations






























Interactive Weather Map New forecast layout! Learn more

10-Day Weather Forecast

Advertisements
Track Severe Weather on mobile